This is the latest recevied weather packets stored in our database for station/object DB0MI. If no packets are shown the sender has not sent any weather packets the latest 10 day(s).
| Time | Temp. | Humidity | Pressure | Rain* | Wind** | Luminosity | Snow |
|---|---|---|---|---|---|---|---|
| 1777141336 | 13.33° C | 33% | 1017.3 hPa | 0 mm | - | - | - |
| 1777140736 | 13.89° C | 34% | 1017.2 hPa | 0 mm | - | - | - |
| 1777140136 | 14.44° C | 34% | 1017.2 hPa | 0 mm | - | - | - |
| 1777139536 | 15° C | 33% | 1017.3 hPa | 0 mm | - | - | - |
| 1777138936 | 15.56° C | 33% | 1017.1 hPa | 0 mm | - | - | - |
| 1777138336 | 16.11° C | 33% | 1017.1 hPa | 0 mm | - | - | - |
| 1777137736 | 16.67° C | 33% | 1017 hPa | 0 mm | - | - | - |
| 1777137136 | 17.22° C | 31% | 1017.2 hPa | 0 mm | - | - | - |
| 1777136536 | 17.78° C | 31% | 1017 hPa | 0 mm | - | - | - |
| 1777135936 | 18.89° C | 27% | 1017.1 hPa | 0 mm | - | - | - |
| 1777135336 | 20.56° C | 26% | 1017.2 hPa | 0 mm | - | - | - |
| 1777134736 | 21.67° C | 25% | 1017.2 hPa | 0 mm | - | - | - |
| 1777134136 | 22.78° C | 25% | 1017.2 hPa | 0 mm | - | - | - |
| 1777133536 | 23.33° C | 25% | 1017.2 hPa | 0 mm | - | - | - |
| 1777132936 | 23.33° C | 26% | 1017.2 hPa | 0 mm | - | - | - |
| 1777132336 | 22.78° C | 28% | 1017.4 hPa | 0 mm | - | - | - |
| 1777131736 | 22.78° C | 30% | 1017.4 hPa | 0 mm | - | - | - |
| 1777131136 | 22.22° C | 30% | 1017.4 hPa | 0 mm | - | - | - |
| 1777130536 | 22.22° C | 30% | 1017.3 hPa | 0 mm | - | - | - |
| 1777129936 | 21.67° C | 33% | 1017.4 hPa | 0 mm | - | - | - |
| 1777129336 | 21.67° C | 32% | 1017.4 hPa | 0 mm | - | - | - |
| 1777128736 | 21.11° C | 32% | 1017.5 hPa | 0 mm | - | - | - |
| 1777128136 | 21.11° C | 34% | 1017.3 hPa | 0 mm | - | - | - |
| 1777127536 | 21.11° C | 34% | 1017.5 hPa | 0 mm | - | - | - |
| 1777126936 | 21.11° C | 35% | 1017.4 hPa | 0 mm | - | - | - |
* Rain latest hour (hover to see other rain measurements)
** Current wind speed in m/s (hover to see current wind gust speed)